^^
Paulen-Weather Station Historical Data
Daily Summary for February 01, 2022 Units:  Metric    English   Both
Daily Weekly Monthly Yearly Custom
  High: Low: Average:
Temperature: 4 °C 0 °C 2 °C
Dew Point: 3 °C -5 °C -0.2 °C
Humidity: 97% 60% 86%
Wind Speed: 23km/h 0km/h 9.2km/h
Wind Gust: 21km/h - -
Wind- - South
Pressure: 1008.2 hPa 988.93 hPa -
Precipitation: 2.59 mm    
Historical Graphs
 
 
Tabular Data for February 01, 2022
Time Temperature Dew Point Pressure Wind Wind Speed Wind Gust Humidity Rainfall Rate (Hourly) solar
00:04 2 °C -5 °C 1008.2 hPa NNW 18 km/h 17 km/h 60% 0 mm 0 W/m2
00:09 2 °C -5 °C 1008.16 hPa NNW 18 km/h 12 km/h 60% 0 mm 0 W/m2
00:14 2 °C -5 °C 1007.99 hPa NNW 12 km/h 10 km/h 61% 0 mm 0 W/m2
00:19 2 °C -5 °C 1007.86 hPa NW 12 km/h 8 km/h 61% 0 mm 0 W/m2
00:24 2 °C -5 °C 1007.89 hPa NNW 13 km/h 10 km/h 62% 0 mm 0 W/m2
00:29 2 °C -5 °C 1007.86 hPa NNW 11 km/h 7 km/h 62% 0 mm 0 W/m2
00:34 2 °C -5 °C 1007.82 hPa NW 10 km/h 7 km/h 62% 0 mm 0 W/m2
00:39 2 °C -5 °C 1007.79 hPa NW 10 km/h 9 km/h 61% 0 mm 0 W/m2
00:44 2 °C -5 °C 1007.82 hPa NW 5 km/h 4 km/h 61% 0 mm 0 W/m2
00:49 2 °C -5 °C 1007.69 hPa NW 2 km/h 1 km/h 62% 0 mm 0 W/m2
00:54 2 °C -5 °C 1007.48 hPa WNW 6 km/h 6 km/h 63% 0 mm 0 W/m2
00:59 2 °C -4 °C 1007.38 hPa WNW 2 km/h 2 km/h 64% 0 mm 0 W/m2
01:04 2 °C -4 °C 1007.35 hPa NW 4 km/h 2 km/h 64% 0 mm 0 W/m2
01:09 2 °C -5 °C 1007.32 hPa NW 6 km/h 4 km/h 64% 0 mm 0 W/m2
01:14 2 °C -5 °C 1007.21 hPa NW 15 km/h 10 km/h 64% 0 mm 0 W/m2
01:19 2 °C -5 °C 1007.15 hPa NW 15 km/h 10 km/h 64% 0 mm 0 W/m2
01:24 2 °C -4 °C 1007.08 hPa NW 13 km/h 8 km/h 64% 0 mm 0 W/m2
01:29 2 °C -4 °C 1007.04 hPa NW 12 km/h 9 km/h 64% 0 mm 0 W/m2
01:34 2 °C -4 °C 1007.04 hPa NW 9 km/h 7 km/h 64% 0 mm 0 W/m2
01:39 2 °C -4 °C 1007.15 hPa NW 8 km/h 5 km/h 65% 0 mm 0 W/m2
01:44 2 °C -4 °C 1007.18 hPa NW 7 km/h 7 km/h 65% 0 mm 0 W/m2
01:49 2 °C -4 °C 1007.15 hPa NNW 6 km/h 5 km/h 65% 0 mm 0 W/m2
01:54 2 °C -4 °C 1007.08 hPa NW 7 km/h 3 km/h 65% 0 mm 0 W/m2
01:59 2 °C -4 °C 1007.08 hPa NNW 7 km/h 4 km/h 66% 0 mm 0 W/m2
02:04 2 °C -4 °C 1007.11 hPa NNW 10 km/h 8 km/h 66% 0 mm 0 W/m2
02:09 2 °C -4 °C 1007.04 hPa NNW 13 km/h 10 km/h 66% 0 mm 0 W/m2
02:14 2 °C -4 °C 1007.04 hPa NW 9 km/h 7 km/h 66% 0 mm 0 W/m2
02:19 2 °C -4 °C 1006.98 hPa NW 16 km/h 9 km/h 66% 0 mm 0 W/m2
02:24 2 °C -4 °C 1006.98 hPa NW 13 km/h 10 km/h 67% 0 mm 0 W/m2
02:29 2 °C -4 °C 1007.01 hPa NW 11 km/h 8 km/h 67% 0 mm 0 W/m2
02:34 2 °C -4 °C 1007.01 hPa NW 9 km/h 9 km/h 67% 0 mm 0 W/m2
02:39 2 °C -4 °C 1006.98 hPa NNW 9 km/h 8 km/h 68% 0 mm 0 W/m2
02:44 2 °C -4 °C 1007.04 hPa NW 7 km/h 4 km/h 68% 0 mm 0 W/m2
02:49 2 °C -4 °C 1007.01 hPa NW 9 km/h 5 km/h 68% 0 mm 0 W/m2
02:54 2 °C -4 °C 1006.91 hPa NW 8 km/h 10 km/h 68% 0 mm 0 W/m2
02:59 2 °C -4 °C 1006.84 hPa NW 7 km/h 7 km/h 68% 0 mm 0 W/m2
03:04 2 °C -3 °C 1006.71 hPa NW 5 km/h 5 km/h 69% 0 mm 0 W/m2
03:09 2 °C -3 °C 1006.57 hPa NW 5 km/h 3 km/h 69% 0 mm 0 W/m2
03:14 2 °C -4 °C 1006.57 hPa NW 4 km/h 4 km/h 69% 0 mm 0 W/m2
03:19 1 °C -4 °C 1006.54 hPa NW 4 km/h 3 km/h 69% 0 mm 0 W/m2
03:24 1 °C -3 °C 1006.5 hPa NNW 5 km/h 4 km/h 70% 0 mm 0 W/m2
03:29 1 °C -3 °C 1006.54 hPa NNW 6 km/h 4 km/h 70% 0 mm 0 W/m2
03:34 1 °C -3 °C 1006.43 hPa NW 7 km/h 3 km/h 70% 0 mm 0 W/m2
03:39 1 °C -3 °C 1006.37 hPa NW 2 km/h 2 km/h 70% 0 mm 0 W/m2
03:44 1 °C -3 °C 1006.33 hPa WNW 7 km/h 3 km/h 71% 0 mm 0 W/m2
03:49 1 °C -3 °C 1006.13 hPa NW 6 km/h 2 km/h 71% 0 mm 0 W/m2
03:54 1 °C -3 °C 1006.23 hPa WNW 5 km/h 5 km/h 71% 0 mm 0 W/m2
03:59 1 °C -3 °C 1006.03 hPa NW 8 km/h 5 km/h 72% 0 mm 0 W/m2
04:04 1 °C -3 °C 1005.86 hPa NW 6 km/h 3 km/h 72% 0 mm 0 W/m2
04:09 1 °C -3 °C 1005.69 hPa NW 5 km/h 3 km/h 72% 0 mm 0 W/m2
04:14 1 °C -3 °C 1005.62 hPa NW 3 km/h 2 km/h 72% 0 mm 0 W/m2
04:19 1 °C -3 °C 1005.55 hPa NNW 4 km/h 2 km/h 72% 0 mm 0 W/m2
04:24 1 °C -3 °C 1005.49 hPa NW 3 km/h 3 km/h 72% 0 mm 0 W/m2
04:29 1 °C -3 °C 1005.42 hPa NW 3 km/h 3 km/h 72% 0 mm 0 W/m2
04:34 1 °C -3 °C 1005.49 hPa NW 6 km/h 5 km/h 73% 0 mm 0 W/m2
04:39 1 °C -3 °C 1005.49 hPa NNW 5 km/h 5 km/h 75% 0 mm 0 W/m2
04:44 1 °C -3 °C 1005.35 hPa NW 4 km/h 2 km/h 76% 0 mm 0 W/m2
04:49 1 °C -3 °C 1005.01 hPa NW 4 km/h 2 km/h 76% 0 mm 0 W/m2
04:54 1 °C -3 °C 1004.67 hPa NW 2 km/h 1 km/h 77% 0 mm 0 W/m2
04:59 1 °C -3 °C 1004.67 hPa Calm     77% 0 mm 0 W/m2
05:04 1 °C -3 °C 1004.5 hPa Calm     77% 0 mm 0 W/m2
05:09 1 °C -3 °C 1004.27 hPa Calm     77% 0 mm 0 W/m2
05:14 1 °C -3 °C 1004.1 hPa Calm     77% 0 mm 0 W/m2
05:19 1 °C -3 °C 1004.03 hPa Calm     77% 0 mm 0 W/m2
05:24 1 °C -3 °C 1003.79 hPa Calm     78% 0 mm 0 W/m2
05:29 1 °C -3 °C 1003.76 hPa Calm     78% 0 mm 0 W/m2
05:34 1 °C -2 °C 1003.59 hPa Calm     78% 0 mm 0 W/m2
05:39 1 °C -2 °C 1003.62 hPa WNW 3 km/h 3 km/h 79% 0 mm 0 W/m2
05:44 1 °C -2 °C 1003.56 hPa WNW 5 km/h 2 km/h 79% 0 mm 0 W/m2
05:49 1 °C -2 °C 1003.49 hPa WNW 4 km/h 2 km/h 79% 0 mm 0 W/m2
05:54 1 °C -2 °C 1003.35 hPa WNW 1 km/h 1 km/h 79% 0 mm 0 W/m2
05:59 1 °C -2 °C 1003.15 hPa Calm     79% 0 mm 0 W/m2
06:04 1 °C -2 °C 1003.08 hPa Calm     79% 0 mm 0 W/m2
06:09 1 °C -2 °C 1002.95 hPa Calm     79% 0 mm 0 W/m2
06:14 1 °C -2 °C 1002.91 hPa Calm     80% 0 mm 0 W/m2
06:19 1 °C -2 °C 1002.74 hPa Calm     80% 0 mm 0 W/m2
06:24 1 °C -2 °C 1002.57 hPa Calm     80% 0 mm 0 W/m2
06:29 1 °C -2 °C 1002.34 hPa Calm     80% 0 mm 0 W/m2
06:34 1 °C -2 °C 1002.2 hPa NW 5 km/h 6 km/h 80% 0 mm 0 W/m2
06:39 1 °C -1 °C 1002.03 hPa SW 3 km/h 3 km/h 82% 0 mm 0 W/m2
06:44 1 °C -1 °C 1001.86 hPa SW 3 km/h 2 km/h 84% 0 mm 0 W/m2
06:49 1 °C -1 °C 1001.59 hPa SW 1 km/h   85% 0 mm 0 W/m2
06:54 1 °C -1 °C 1001.46 hPa Calm     86% 0 mm 0 W/m2
06:59 1 °C -1 °C 1001.25 hPa Calm     87% 0 mm 0 W/m2
07:04 1 °C -1 °C 1001.15 hPa Calm     88% 0 mm 0 W/m2
07:09 1 °C 0 °C 1000.98 hPa SW 2 km/h 1 km/h 89% 0 mm 0 W/m2
07:14 1 °C 0 °C 1000.81 hPa NW 3 km/h 3 km/h 90% 0 mm 0 W/m2
07:19 1 °C 0 °C 1000.58 hPa ENE 6 km/h 5 km/h 91% 0 mm 0 W/m2
07:24 1 °C 0 °C 1000.31 hPa SSW 5 km/h 3 km/h 92% 0 mm 0 W/m2
07:29 1 °C 0 °C 1000.14 hPa SSW 6 km/h 8 km/h 92% 0 mm 0 W/m2
07:34 1 °C 0 °C 999.73 hPa SSW 10 km/h 8 km/h 93% 0 mm 0 W/m2
07:39 1 °C 0 °C 999.56 hPa SSW 7 km/h 7 km/h 93% 0 mm 0 W/m2
07:44 1 °C 1 °C 999.32 hPa WSW 11 km/h 10 km/h 93% 0 mm 0 W/m2
07:49 2 °C 1 °C 999.09 hPa S 12 km/h 14 km/h 94% 0.2 mm 0 W/m2
07:54 2 °C 1 °C 998.78 hPa S 19 km/h 17 km/h 95% 0.2 mm 0 W/m2
07:59 2 °C 2 °C 998.48 hPa S 17 km/h 16 km/h 95% 0.41 mm 0 W/m2
08:04 3 °C 2 °C 998.21 hPa S 18 km/h 16 km/h 95% 0.41 mm 0 W/m2
08:09 3 °C 2 °C 997.93 hPa S 18 km/h 18 km/h 95% 0.41 mm 0 W/m2
08:14 3 °C 2 °C 997.66 hPa S 19 km/h 17 km/h 95% 0.61 mm 0 W/m2
08:19 3 °C 2 °C 997.43 hPa N 19 km/h 16 km/h 95% 0.61 mm 0 W/m2
08:24 3 °C 2 °C 997.16 hPa NNE 17 km/h 14 km/h 95% 0.61 mm 0 W/m2
08:29 3 °C 2 °C 996.99 hPa ENE 21 km/h 19 km/h 95% 0.79 mm 0 W/m2
08:34 3 °C 2 °C 996.82 hPa SE 22 km/h 19 km/h 94% 0.79 mm 0 W/m2
08:39 3 °C 2 °C 996.51 hPa NE 22 km/h 21 km/h 94% 0.79 mm 0 W/m2
08:44 3 °C 2 °C 996.38 hPa ENE 23 km/h 21 km/h 94% 0.99 mm 0 W/m2
08:49 3 °C 3 °C 996.07 hPa NNE 23 km/h 20 km/h 94% 0.99 mm 0 W/m2
08:54 3 °C 2 °C 995.87 hPa NNE 19 km/h 18 km/h 94% 0.99 mm 7 W/m2
08:59 3 °C 2 °C 995.6 hPa N 18 km/h 17 km/h 94% 1.19 mm 7 W/m2
09:04 3 °C 2 °C 995.36 hPa NNE 17 km/h 16 km/h 94% 0.99 mm 7 W/m2
09:09 3 °C 2 °C 995.02 hPa NNE 13 km/h 14 km/h 94% 1.19 mm 11 W/m2
09:14 3 °C 3 °C 994.72 hPa S 21 km/h 18 km/h 94% 1.19 mm 7 W/m2
09:19 4 °C 3 °C 994.58 hPa N 22 km/h 16 km/h 94% 1.19 mm 5 W/m2
09:24 4 °C 3 °C 994.24 hPa NNE 23 km/h 17 km/h 94% 1.19 mm 11 W/m2
09:29 4 °C 3 °C 994.01 hPa NE 18 km/h 13 km/h 94% 1.19 mm 16 W/m2
09:34 4 °C 3 °C 993.84 hPa NNE 17 km/h 14 km/h 94% 1.19 mm 14 W/m2
09:39 4 °C 3 °C 993.67 hPa SW 19 km/h 14 km/h 94% 1.19 mm 11 W/m2
09:44 4 °C 3 °C 993.46 hPa NNE 19 km/h 15 km/h 93% 1.19 mm 14 W/m2
09:49 4 °C 3 °C 993.4 hPa N 15 km/h 12 km/h 93% 1.19 mm 19 W/m2
09:54 4 °C 3 °C 993.23 hPa NNW 13 km/h 10 km/h 93% 1.19 mm 28 W/m2
09:59 4 °C 3 °C 993.02 hPa NE 18 km/h 14 km/h 94% 0.79 mm 28 W/m2
10:04 4 °C 3 °C 992.75 hPa NE 10 km/h 12 km/h 94% 0.79 mm 39 W/m2
10:09 4 °C 3 °C 992.72 hPa WNW 4 km/h 3 km/h 94% 0.79 mm 23 W/m2
10:14 4 °C 3 °C 992.62 hPa W 1 km/h 2 km/h 94% 0.79 mm 33 W/m2
10:19 4 °C 3 °C 992.38 hPa W 1 km/h 2 km/h 94% 0.79 mm 60 W/m2
10:24 4 °C 3 °C 992.31 hPa Calm     95% 0.61 mm 58 W/m2
10:29 4 °C 3 °C 992.08 hPa NNE 1 km/h 2 km/h 95% 0.61 mm 42 W/m2
10:34 4 °C 3 °C 991.94 hPa NE 5 km/h 6 km/h 95% 0.61 mm 91 W/m2
10:39 3 °C 2 °C 991.81 hPa NE 16 km/h 16 km/h 94% 0.41 mm 102 W/m2
10:44 2 °C 2 °C 991.77 hPa NE 23 km/h 21 km/h 94% 0.41 mm 79 W/m2
10:49 2 °C 1 °C 991.67 hPa NNE 23 km/h 21 km/h 94% 0.2 mm 84 W/m2
10:54 2 °C 1 °C 991.53 hPa NNE 22 km/h 21 km/h 95% 0.2 mm 81 W/m2
10:59 2 °C 1 °C 991.43 hPa NNE 16 km/h 14 km/h 96% 0.2 mm 116 W/m2
11:04 2 °C 1 °C 991.4 hPa NNE 17 km/h 15 km/h 96% 0.2 mm 116 W/m2
11:09 2 °C 1 °C 991.23 hPa NNE 12 km/h 12 km/h 96% 0.2 mm 58 W/m2
11:14 2 °C 1 °C 991.13 hPa NNE 13 km/h 12 km/h 96% 0 mm 60 W/m2
11:19 2 °C 1 °C 991.03 hPa NNE 15 km/h 13 km/h 96% 0 mm 81 W/m2
11:24 2 °C 1 °C 990.89 hPa NNE 9 km/h 8 km/h 96% 0 mm 91 W/m2
11:29 2 °C 1 °C 990.79 hPa NNE 11 km/h 11 km/h 96% 0 mm 76 W/m2
11:34 2 °C 1 °C 990.76 hPa N 12 km/h 11 km/h 96% 0 mm 46 W/m2
11:39 2 °C 1 °C 990.69 hPa NNE 13 km/h 11 km/h 96% 0 mm 51 W/m2
11:44 2 °C 1 °C 990.52 hPa N 11 km/h 9 km/h 96% 0 mm 67 W/m2
11:49 2 °C 1 °C 990.38 hPa N 11 km/h 11 km/h 96% 0 mm 149 W/m2
11:54 2 °C 1 °C 990.28 hPa N 11 km/h 9 km/h 96% 0 mm 149 W/m2
11:59 2 °C 1 °C 990.21 hPa N 8 km/h 9 km/h 96% 0 mm 83 W/m2
12:04 2 °C 1 °C 990.15 hPa N 12 km/h 11 km/h 96% 0 mm 144 W/m2
12:09 2 °C 2 °C 990.04 hPa N 11 km/h 11 km/h 96% 0 mm 181 W/m2
12:14 2 °C 2 °C 989.94 hPa N 10 km/h 10 km/h 97% 0 mm 104 W/m2
12:19 2 °C 2 °C 989.81 hPa N 8 km/h 7 km/h 97% 0.2 mm 90 W/m2
12:24 2 °C 2 °C 989.64 hPa N 10 km/h 9 km/h 97% 0.2 mm 100 W/m2
12:29 2 °C 2 °C 989.57 hPa N 8 km/h 7 km/h 97% 0.2 mm 169 W/m2
12:34 2 °C 2 °C 989.5 hPa N 11 km/h 10 km/h 97% 0.2 mm 190 W/m2
12:39 2 °C 2 °C 989.6 hPa N 15 km/h 14 km/h 97% 0.2 mm 158 W/m2
12:44 2 °C 2 °C 989.57 hPa N 17 km/h 15 km/h 97% 0.2 mm 142 W/m2
12:49 2 °C 2 °C 989.6 hPa N 14 km/h 12 km/h 97% 0.2 mm 135 W/m2
12:54 2 °C 2 °C 989.6 hPa N 17 km/h 13 km/h 97% 0.2 mm 172 W/m2
12:59 2 °C 2 °C 989.5 hPa N 16 km/h 16 km/h 97% 0.2 mm 155 W/m2
13:04 2 °C 2 °C 989.47 hPa N 17 km/h 16 km/h 96% 0.2 mm 264 W/m2
13:09 2 °C 2 °C 989.27 hPa N 15 km/h 15 km/h 96% 0.2 mm 258 W/m2
13:14 2 °C 2 °C 989.27 hPa N 18 km/h 16 km/h 96% 0.2 mm 216 W/m2
13:19 2 °C 2 °C 989.3 hPa N 16 km/h 16 km/h 96% 0.2 mm 197 W/m2
13:24 2 °C 2 °C 989.2 hPa NNE 18 km/h 16 km/h 96% 0 mm 197 W/m2
13:29 2 °C 2 °C 989.16 hPa N 17 km/h 16 km/h 96% 0 mm 193 W/m2
13:34 2 °C 2 °C 989.06 hPa N 14 km/h 13 km/h 96% 0 mm 176 W/m2
13:39 2 °C 2 °C 989.06 hPa NNE 14 km/h 11 km/h 96% 0 mm 181 W/m2
13:44 2 °C 2 °C 988.93 hPa N 6 km/h 8 km/h 96% 0 mm 179 W/m2
13:49 2 °C 2 °C 988.93 hPa N 11 km/h 10 km/h 96% 0 mm 185 W/m2
13:54 2 °C 2 °C 988.93 hPa N 9 km/h 9 km/h 95% 0 mm 185 W/m2
13:59 2 °C 2 °C 988.93 hPa NNW 7 km/h 6 km/h 95% 0 mm 178 W/m2
14:04 2 °C 2 °C 989.03 hPa NNW 6 km/h 4 km/h 95% 0 mm 200 W/m2
14:09 3 °C 2 °C 989.03 hPa NNW 7 km/h 8 km/h 95% 0 mm 213 W/m2
14:14 3 °C 2 °C 989.06 hPa NNW 11 km/h 8 km/h 95% 0 mm 188 W/m2
14:19 3 °C 2 °C 989.03 hPa N 13 km/h 13 km/h 95% 0 mm 172 W/m2
14:24 3 °C 2 °C 989.1 hPa N 10 km/h 9 km/h 94% 0 mm 167 W/m2
14:29 3 °C 2 °C 989.1 hPa N 14 km/h 14 km/h 94% 0 mm 162 W/m2
14:34 3 °C 2 °C 989.16 hPa N 16 km/h 14 km/h 94% 0 mm 160 W/m2
14:39 3 °C 2 °C 989.23 hPa NNE 13 km/h 17 km/h 93% 0 mm 156 W/m2
14:44 3 °C 2 °C 989.27 hPa NNE 12 km/h 8 km/h 93% 0 mm 149 W/m2
14:49 3 °C 2 °C 989.27 hPa NNE 11 km/h 9 km/h 93% 0 mm 142 W/m2
14:54 3 °C 2 °C 989.33 hPa NNE 14 km/h 11 km/h 93% 0 mm 146 W/m2
14:59 3 °C 2 °C 989.3 hPa NNE 16 km/h 12 km/h 92% 0 mm 155 W/m2
15:04 3 °C 1 °C 989.27 hPa NNE 16 km/h 12 km/h 92% 0 mm 135 W/m2
15:09 3 °C 1 °C 989.3 hPa NNE 15 km/h 12 km/h 91% 0 mm 123 W/m2
15:14 2 °C 1 °C 989.44 hPa NE 19 km/h 18 km/h 91% 0 mm 132 W/m2
15:19 2 °C 1 °C 989.57 hPa NNE 22 km/h 19 km/h 91% 0 mm 141 W/m2
15:24 2 °C 1 °C 989.81 hPa NNE 20 km/h 17 km/h 90% 0 mm 132 W/m2
15:29 2 °C 1 °C 989.88 hPa NNE 20 km/h 16 km/h 90% 0 mm 134 W/m2
15:34 2 °C 1 °C 989.98 hPa NNE 18 km/h 13 km/h 89% 0 mm 65 W/m2
15:39 2 °C 1 °C 990.04 hPa NE 18 km/h 17 km/h 89% 0 mm 54 W/m2
15:44 2 °C 1 °C 990.01 hPa NE 22 km/h 19 km/h 89% 0 mm 49 W/m2
15:49 2 °C 1 °C 990.01 hPa NE 18 km/h 17 km/h 89% 0 mm 109 W/m2
15:54 2 °C 1 °C 990.21 hPa NE 19 km/h 17 km/h 89% 0 mm 104 W/m2
15:59 2 °C 1 °C 990.21 hPa NE 17 km/h 14 km/h 89% 0 mm 91 W/m2
16:04 2 °C 1 °C 990.18 hPa NE 18 km/h 16 km/h 90% 0 mm 65 W/m2
16:09 2 °C 1 °C 990.25 hPa NNE 16 km/h 13 km/h 90% 0 mm 44 W/m2
16:14 2 °C 0 °C 990.42 hPa NE 14 km/h 12 km/h 90% 0 mm 33 W/m2
16:19 2 °C 0 °C 990.48 hPa NE 14 km/h 13 km/h 90% 0 mm 16 W/m2
16:24 2 °C 0 °C 990.62 hPa NE 13 km/h 12 km/h 90% 0 mm 16 W/m2
16:29 2 °C 0 °C 990.86 hPa NNE 10 km/h 8 km/h 90% 0 mm 11 W/m2
16:34 2 °C 0 °C 990.86 hPa NE 13 km/h 11 km/h 90% 0 mm 14 W/m2
16:39 2 °C 0 °C 990.79 hPa NE 12 km/h 12 km/h 90% 0 mm 11 W/m2
16:44 2 °C 0 °C 990.82 hPa NE 13 km/h 12 km/h 89% 0 mm 7 W/m2
16:49 2 °C 0 °C 990.76 hPa NE 12 km/h 14 km/h 89% 0 mm 5 W/m2
16:54 2 °C 0 °C 990.76 hPa NE 17 km/h 14 km/h 89% 0 mm 5 W/m2
16:59 2 °C 0 °C 990.76 hPa NE 13 km/h 11 km/h 88% 0 mm 0 W/m2
17:04 2 °C 0 °C 990.82 hPa NE 14 km/h 13 km/h 88% 0 mm 0 W/m2
17:09 2 °C 0 °C 990.79 hPa NE 14 km/h 13 km/h 88% 0 mm 0 W/m2
17:14 2 °C 0 °C 990.89 hPa NE 13 km/h 12 km/h 88% 0 mm 0 W/m2
17:19 2 °C 0 °C 990.96 hPa NE 9 km/h 9 km/h 88% 0 mm 0 W/m2
17:24 2 °C 0 °C 991.2 hPa NE 12 km/h 13 km/h 88% 0 mm 0 W/m2
17:29 2 °C 0 °C 991.2 hPa NE 13 km/h 12 km/h 88% 0 mm 0 W/m2
17:34 2 °C 0 °C 991.16 hPa NE 14 km/h 12 km/h 88% 0 mm 0 W/m2
17:39 2 °C 0 °C 991.3 hPa NE 12 km/h 11 km/h 88% 0 mm 0 W/m2
17:44 2 °C 0 °C 991.3 hPa NE 10 km/h 10 km/h 88% 0 mm 0 W/m2
17:49 1 °C 0 °C 991.26 hPa NE 11 km/h 12 km/h 88% 0 mm 0 W/m2
17:54 1 °C 0 °C 991.3 hPa NE 10 km/h 9 km/h 89% 0 mm 0 W/m2
17:59 1 °C 0 °C 991.33 hPa NE 11 km/h 9 km/h 89% 0 mm 0 W/m2
18:04 1 °C 0 °C 991.37 hPa NE 10 km/h 11 km/h 89% 0 mm 0 W/m2
18:09 1 °C 0 °C 991.43 hPa NE 10 km/h 10 km/h 89% 0 mm 0 W/m2
18:14 1 °C 0 °C 991.5 hPa NE 10 km/h 9 km/h 89% 0 mm 0 W/m2
18:19 1 °C 0 °C 991.53 hPa ENE 8 km/h 7 km/h 89% 0 mm 0 W/m2
18:24 1 °C 0 °C 991.53 hPa NE 6 km/h 6 km/h 89% 0 mm 0 W/m2
18:29 1 °C 0 °C 991.6 hPa NE 4 km/h 2 km/h 89% 0 mm 0 W/m2
18:34 1 °C 0 °C 991.6 hPa NNE 3 km/h 3 km/h 89% 0 mm 0 W/m2
18:39 1 °C 0 °C 991.6 hPa NE 4 km/h 2 km/h 89% 0 mm 0 W/m2
18:44 1 °C 0 °C 991.5 hPa Calm     90% 0 mm 0 W/m2
18:49 1 °C 0 °C 991.53 hPa NE 1 km/h 1 km/h 90% 0 mm 0 W/m2
18:54 1 °C 0 °C 991.7 hPa NE 3 km/h 1 km/h 90% 0 mm 0 W/m2
18:59 1 °C 0 °C 991.64 hPa NE 2 km/h 2 km/h 90% 0 mm 0 W/m2
19:04 1 °C 0 °C 991.64 hPa NE 1 km/h 1 km/h 91% 0 mm 0 W/m2
19:09 1 °C 0 °C 991.53 hPa Calm     90% 0 mm 0 W/m2
19:14 1 °C 0 °C 991.64 hPa Calm     90% 0 mm 0 W/m2
19:19 1 °C 0 °C 991.7 hPa Calm     90% 0 mm 0 W/m2
19:24 1 °C -1 °C 991.77 hPa Calm     91% 0 mm 0 W/m2
19:29 1 °C -1 °C 991.74 hPa Calm     91% 0 mm 0 W/m2
19:34 1 °C -1 °C 991.77 hPa NE 1 km/h   91% 0 mm 0 W/m2
19:39 1 °C 0 °C 991.81 hPa Calm     92% 0 mm 0 W/m2
19:44 1 °C 0 °C 991.74 hPa Calm     92% 0 mm 0 W/m2
19:49 1 °C 0 °C 991.77 hPa Calm     92% 0 mm 0 W/m2
19:54 1 °C 0 °C 991.81 hPa Calm     92% 0 mm 0 W/m2
19:59 1 °C 0 °C 991.74 hPa Calm     92% 0 mm 0 W/m2
20:04 1 °C 0 °C 991.77 hPa NE 1 km/h   91% 0 mm 0 W/m2
20:09 1 °C 0 °C 991.6 hPa Calm     91% 0 mm 0 W/m2
20:14 1 °C 0 °C 991.7 hPa Calm     91% 0 mm 0 W/m2
20:19 1 °C -1 °C 991.77 hPa Calm     91% 0 mm 0 W/m2
20:24 1 °C -1 °C 991.81 hPa Calm     91% 0 mm 0 W/m2
20:29 1 °C -1 °C 991.74 hPa Calm     92% 0 mm 0 W/m2
20:34 1 °C -1 °C 991.74 hPa Calm     92% 0 mm 0 W/m2
20:39 1 °C -1 °C 991.74 hPa NE 1 km/h 1 km/h 92% 0 mm 0 W/m2
20:44 1 °C -1 °C 991.7 hPa Calm     92% 0 mm 0 W/m2
20:49 1 °C -1 °C 991.67 hPa Calm     92% 0 mm 0 W/m2
20:54 1 °C -1 °C 991.67 hPa Calm     92% 0 mm 0 W/m2
20:59 1 °C 0 °C 991.74 hPa Calm     93% 0 mm 0 W/m2
21:04 0 °C -1 °C 991.81 hPa NNE 4 km/h 6 km/h 92% 0 mm 0 W/m2
21:09 0 °C -1 °C 991.67 hPa NE 5 km/h 7 km/h 92% 0 mm 0 W/m2
21:14 0 °C -1 °C 991.7 hPa N 6 km/h 7 km/h 93% 0 mm 0 W/m2
21:19 0 °C -1 °C 991.74 hPa E 3 km/h 2 km/h 93% 0 mm 0 W/m2
21:24 0 °C 0 °C 991.7 hPa NNW 3 km/h 3 km/h 94% 0 mm 0 W/m2
21:29 1 °C 0 °C 991.64 hPa NNW 3 km/h 2 km/h 94% 0 mm 0 W/m2
21:34 1 °C 0 °C 991.43 hPa NNW 1 km/h 1 km/h 94% 0 mm 0 W/m2
21:39 1 °C 0 °C 991.13 hPa NW 4 km/h 3 km/h 94% 0 mm 0 W/m2
21:44 1 °C 0 °C 991.03 hPa W 5 km/h 5 km/h 94% 0 mm 0 W/m2
21:49 1 °C 0 °C 990.99 hPa WSW 4 km/h 3 km/h 94% 0 mm 0 W/m2
21:54 1 °C 0 °C 990.99 hPa WNW 4 km/h 5 km/h 94% 0 mm 0 W/m2
21:59 1 °C 0 °C 991.03 hPa NNW 12 km/h 10 km/h 94% 0 mm 0 W/m2
22:04 2 °C 1 °C 990.96 hPa NNW 14 km/h 12 km/h 95% 0 mm 0 W/m2
22:09 3 °C 2 °C 990.99 hPa NNW 9 km/h 7 km/h 93% 0 mm 0 W/m2
22:14 3 °C 2 °C 990.99 hPa NNW 8 km/h 6 km/h 92% 0 mm 0 W/m2
22:17 3 °C 2 °C 990.99 hPa NNW 9 km/h 4 km/h 91% 0 mm 0 W/m2
22:24 4 °C 2 °C 991.03 hPa NW 11 km/h 7 km/h 89% 0 mm 0 W/m2
22:29 4 °C 2 °C 990.99 hPa NNW 8 km/h 5 km/h 88% 0 mm 0 W/m2
22:34 4 °C 2 °C 991.03 hPa NNW 10 km/h 9 km/h 88% 0 mm 0 W/m2
22:39 4 °C 2 °C 991.09 hPa N 9 km/h 9 km/h 87% 0 mm 0 W/m2
22:44 4 °C 2 °C 991.23 hPa NNE 6 km/h 4 km/h 86% 0 mm 0 W/m2
22:49 4 °C 2 °C 991.26 hPa ENE 3 km/h 2 km/h 86% 0 mm 0 W/m2
22:54 4 °C 2 °C 991.23 hPa ENE 2 km/h 2 km/h 86% 0 mm 0 W/m2
22:59 4 °C 2 °C 991.23 hPa NNW 6 km/h 5 km/h 86% 0 mm 0 W/m2
23:04 4 °C 2 °C 991.26 hPa NW 6 km/h 5 km/h 85% 0 mm 0 W/m2
23:09 4 °C 2 °C 991.26 hPa W 9 km/h 10 km/h 84% 0 mm 0 W/m2
23:14 4 °C 2 °C 991.26 hPa NW 5 km/h 3 km/h 84% 0 mm 0 W/m2
23:19 4 °C 2 °C 991.3 hPa NNW 10 km/h 9 km/h 84% 0 mm 0 W/m2
23:24 4 °C 2 °C 991.33 hPa NW 8 km/h 7 km/h 84% 0 mm 0 W/m2
23:29 4 °C 2 °C 991.33 hPa NNW 7 km/h 5 km/h 83% 0 mm 0 W/m2
23:34 4 °C 1 °C 991.26 hPa NNW 11 km/h 10 km/h 83% 0 mm 0 W/m2
23:39 4 °C 1 °C 991.4 hPa N 10 km/h 10 km/h 83% 0 mm 0 W/m2
23:44 4 °C 1 °C 991.5 hPa N 13 km/h 12 km/h 83% 0 mm 0 W/m2
23:49 4 °C 1 °C 991.5 hPa N 17 km/h 18 km/h 82% 0 mm 0 W/m2
23:54 4 °C 1 °C 991.47 hPa N 20 km/h 18 km/h 82% 0 mm 0 W/m2
23:59 4 °C 1 °C 991.43 hPa NNW 20 km/h 16 km/h 81% 0 mm 0 W/m2
Compliments of Weather Underground - 2 mb